sensor_id;sensor_type;location;lat;lon;timestamp;pressure;altitude;pressure_sealevel;temperature;humidity
69535;BME280;56754;51.568;5.048;2023-08-21T00:02:13;102267.75;;;23.57;62.58
69535;BME280;56754;51.568;5.048;2023-08-21T00:04:39;102269.69;;;23.57;62.49
69535;BME280;56754;51.568;5.048;2023-08-21T00:07:04;102266.94;;;23.57;62.53
69535;BME280;56754;51.568;5.048;2023-08-21T00:09:29;102269.69;;;23.57;62.50
69535;BME280;56754;51.568;5.048;2023-08-21T00:11:55;102274.72;;;23.55;62.50
69535;BME280;56754;51.568;5.048;2023-08-21T00:14:20;102270.06;;;23.55;62.55
69535;BME280;56754;51.568;5.048;2023-08-21T00:16:45;102275.50;;;23.55;62.70
69535;BME280;56754;51.568;5.048;2023-08-21T00:19:10;102272.34;;;23.53;62.53
69535;BME280;56754;51.568;5.048;2023-08-21T00:21:36;102269.63;;;23.53;62.62
69535;BME280;56754;51.568;5.048;2023-08-21T00:24:01;102278.19;;;23.52;62.57
69535;BME280;56754;51.568;5.048;2023-08-21T00:26:26;102271.56;;;23.53;62.81
69535;BME280;56754;51.568;5.048;2023-08-21T00:28:52;102278.53;;;23.50;62.46
69535;BME280;56754;51.568;5.048;2023-08-21T00:31:17;102283.22;;;23.50;62.61
69535;BME280;56754;51.568;5.048;2023-08-21T00:33:42;102277.75;;;23.50;62.54
69535;BME280;56754;51.568;5.048;2023-08-21T00:36:07;102276.19;;;23.49;62.76
69535;BME280;56754;51.568;5.048;2023-08-21T00:38:33;102269.91;;;23.48;62.83
69535;BME280;56754;51.568;5.048;2023-08-21T00:40:58;102271.84;;;23.48;62.62
69535;BME280;56754;51.568;5.048;2023-08-21T00:43:23;102267.56;;;23.47;62.75
69535;BME280;56754;51.568;5.048;2023-08-21T00:45:49;102278.47;;;23.47;62.80
69535;BME280;56754;51.568;5.048;2023-08-21T00:48:15;102268.72;;;23.46;62.67
69535;BME280;56754;51.568;5.048;2023-08-21T00:50:41;102263.28;;;23.46;62.95
69535;BME280;56754;51.568;5.048;2023-08-21T00:53:07;102257.00;;;23.45;62.83
69535;BME280;56754;51.568;5.048;2023-08-21T00:55:33;102261.66;;;23.45;63.05
69535;BME280;56754;51.568;5.048;2023-08-21T00:57:59;102255.44;;;23.44;63.00
69535;BME280;56754;51.568;5.048;2023-08-21T01:00:27;102256.59;;;23.43;63.16
69535;BME280;56754;51.568;5.048;2023-08-21T01:02:53;102259.66;;;23.42;63.05
69535;BME280;56754;51.568;5.048;2023-08-21T01:05:21;102256.16;;;23.41;63.19
69535;BME280;56754;51.568;5.048;2023-08-21T01:07:59;102249.13;;;23.40;63.08
69535;BME280;56754;51.568;5.048;2023-08-21T01:13:33;102250.63;;;23.37;63.25
69535;BME280;56754;51.568;5.048;2023-08-21T01:16:02;102247.91;;;23.37;63.22
69535;BME280;56754;51.568;5.048;2023-08-21T01:18:29;102243.59;;;23.36;63.07
69535;BME280;56754;51.568;5.048;2023-08-21T01:20:55;102246.69;;;23.35;63.45
69535;BME280;56754;51.568;5.048;2023-08-21T01:23:47;102250.59;;;23.34;63.30
69535;BME280;56754;51.568;5.048;2023-08-21T01:26:12;102256.38;;;23.32;63.33
69535;BME280;56754;51.568;5.048;2023-08-21T01:28:39;102254.03;;;23.31;63.24
69535;BME280;56754;51.568;5.048;2023-08-21T01:31:15;102255.94;;;23.30;63.22
69535;BME280;56754;51.568;5.048;2023-08-21T01:33:45;102259.84;;;23.29;63.21
69535;BME280;56754;51.568;5.048;2023-08-21T01:36:12;102268.03;;;23.29;63.13
69535;BME280;56754;51.568;5.048;2023-08-21T01:38:38;102266.47;;;23.28;63.25
69535;BME280;56754;51.568;5.048;2023-08-21T01:41:04;102264.84;;;23.27;63.21
69535;BME280;56754;51.568;5.048;2023-08-21T01:43:29;102273.03;;;23.27;63.31
69535;BME280;56754;51.568;5.048;2023-08-21T01:45:55;102266.03;;;23.26;63.33
69535;BME280;56754;51.568;5.048;2023-08-21T01:48:20;102275.38;;;23.25;63.23
69535;BME280;56754;51.568;5.048;2023-08-21T01:50:45;102279.66;;;23.26;63.05
69535;BME280;56754;51.568;5.048;2023-08-21T01:53:11;102280.00;;;23.25;63.00
69535;BME280;56754;51.568;5.048;2023-08-21T01:55:36;102273.75;;;23.24;63.14
69535;BME280;56754;51.568;5.048;2023-08-21T01:58:01;102263.22;;;23.23;63.04
69535;BME280;56754;51.568;5.048;2023-08-21T02:00:26;102269.81;;;23.22;63.57
69535;BME280;56754;51.568;5.048;2023-08-21T02:02:52;102267.09;;;23.22;63.36
69535;BME280;56754;51.568;5.048;2023-08-21T02:05:17;102270.19;;;23.20;63.21
69535;BME280;56754;51.568;5.048;2023-08-21T02:07:42;102267.81;;;23.19;63.28
69535;BME280;56754;51.568;5.048;2023-08-21T02:10:08;102269.75;;;23.18;63.45
69535;BME280;56754;51.568;5.048;2023-08-21T02:12:33;102268.19;;;23.17;63.47
69535;BME280;56754;51.568;5.048;2023-08-21T02:14:58;102267.75;;;23.15;63.58
69535;BME280;56754;51.568;5.048;2023-08-21T02:17:26;102262.28;;;23.15;63.55
69535;BME280;56754;51.568;5.048;2023-08-21T02:19:51;102268.91;;;23.14;63.67
69535;BME280;56754;51.568;5.048;2023-08-21T02:22:16;102268.13;;;23.13;63.58
69535;BME280;56754;51.568;5.048;2023-08-21T02:24:42;102276.66;;;23.12;63.32
69535;BME280;56754;51.568;5.048;2023-08-21T02:27:07;102271.56;;;23.10;63.76
69535;BME280;56754;51.568;5.048;2023-08-21T02:29:32;102280.88;;;23.09;64.01
69535;BME280;56754;51.568;5.048;2023-08-21T02:31:58;102280.09;;;23.09;63.95
69535;BME280;56754;51.568;5.048;2023-08-21T02:34:23;102276.59;;;23.08;63.76
69535;BME280;56754;51.568;5.048;2023-08-21T02:36:48;102283.19;;;23.07;63.75
69535;BME280;56754;51.568;5.048;2023-08-21T02:39:14;102269.56;;;23.07;63.77
69535;BME280;56754;51.568;5.048;2023-08-21T02:41:39;102270.69;;;23.06;63.33
69535;BME280;56754;51.568;5.048;2023-08-21T02:44:04;102276.53;;;23.05;63.70
69535;BME280;56754;51.568;5.048;2023-08-21T02:46:29;102274.94;;;23.04;63.47
69535;BME280;56754;51.568;5.048;2023-08-21T02:48:55;102282.31;;;23.03;64.13
69535;BME280;56754;51.568;5.048;2023-08-21T02:51:20;102278.81;;;23.03;63.53
69535;BME280;56754;51.568;5.048;2023-08-21T02:53:45;102270.19;;;23.01;63.84
69535;BME280;56754;51.568;5.048;2023-08-21T02:56:11;102267.47;;;23.01;63.90
69535;BME280;56754;51.568;5.048;2023-08-21T02:58:36;102276.81;;;23.00;63.63
69535;BME280;56754;51.568;5.048;2023-08-21T03:01:01;102285.00;;;23.00;64.00
69535;BME280;56754;51.568;5.048;2023-08-21T03:03:26;102263.13;;;22.96;64.16
69535;BME280;56754;51.568;5.048;2023-08-21T03:05:52;102265.06;;;22.96;64.06
69535;BME280;56754;51.568;5.048;2023-08-21T03:08:17;102264.25;;;22.95;63.64
69535;BME280;56754;51.568;5.048;2023-08-21T03:10:42;102263.44;;;22.94;64.13
69535;BME280;56754;51.568;5.048;2023-08-21T03:13:08;102265.75;;;22.92;64.23
69535;BME280;56754;51.568;5.048;2023-08-21T03:15:34;102265.75;;;22.92;64.39
69535;BME280;56754;51.568;5.048;2023-08-21T03:17:59;102266.88;;;22.91;63.14
69535;BME280;56754;51.568;5.048;2023-08-21T03:20:25;102269.97;;;22.90;63.72
69535;BME280;56754;51.568;5.048;2023-08-21T03:22:50;102272.25;;;22.88;63.18
69535;BME280;56754;51.568;5.048;2023-08-21T03:25:15;102271.47;;;22.87;63.81
69535;BME280;56754;51.568;5.048;2023-08-21T03:27:41;102264.41;;;22.86;64.23
69535;BME280;56754;51.568;5.048;2023-08-21T03:30:06;102264.41;;;22.86;63.40
69535;BME280;56754;51.568;5.048;2023-08-21T03:32:32;102270.25;;;22.85;63.65
69535;BME280;56754;51.568;5.048;2023-08-21T03:34:58;102267.88;;;22.83;63.74
69535;BME280;56754;51.568;5.048;2023-08-21T03:37:23;102266.28;;;22.82;64.49
69535;BME280;56754;51.568;5.048;2023-08-21T03:39:49;102265.06;;;22.80;63.71
69535;BME280;56754;51.568;5.048;2023-08-21T03:42:14;102270.53;;;22.80;63.86
69535;BME280;56754;51.568;5.048;2023-08-21T03:44:43;102267.00;;;22.79;64.19
69535;BME280;56754;51.568;5.048;2023-08-21T03:47:08;102268.50;;;22.77;64.41
69535;BME280;56754;51.568;5.048;2023-08-21T03:49:33;102259.56;;;22.76;63.66
69535;BME280;56754;51.568;5.048;2023-08-21T03:51:59;102264.56;;;22.74;63.65
69535;BME280;56754;51.568;5.048;2023-08-21T03:54:24;102256.38;;;22.74;63.97
69535;BME280;56754;51.568;5.048;2023-08-21T03:56:49;102267.66;;;22.73;63.80
69535;BME280;56754;51.568;5.048;2023-08-21T03:59:14;102265.28;;;22.71;64.02
69535;BME280;56754;51.568;5.048;2023-08-21T04:01:40;102265.28;;;22.71;63.90
69535;BME280;56754;51.568;5.048;2023-08-21T04:04:05;102263.72;;;22.70;63.76
69535;BME280;56754;51.568;5.048;2023-08-21T04:06:30;102266.78;;;22.68;63.31
69535;BME280;56754;51.568;5.048;2023-08-21T04:08:56;102274.16;;;22.68;64.08
69535;BME280;56754;51.568;5.048;2023-08-21T04:11:21;102269.88;;;22.67;64.49
69535;BME280;56754;51.568;5.048;2023-08-21T04:13:46;102269.09;;;22.66;63.61
69535;BME280;56754;51.568;5.048;2023-08-21T04:16:12;102262.41;;;22.64;63.90
69535;BME280;56754;51.568;5.048;2023-08-21T04:18:37;102267.88;;;22.64;64.04
69535;BME280;56754;51.568;5.048;2023-08-21T04:21:02;102272.88;;;22.62;64.20
69535;BME280;56754;51.568;5.048;2023-08-21T04:23:27;102278.31;;;22.62;64.37
69535;BME280;56754;51.568;5.048;2023-08-21T04:25:53;102279.81;;;22.59;63.99
69535;BME280;56754;51.568;5.048;2023-08-21T04:28:19;102279.03;;;22.59;63.74
69535;BME280;56754;51.568;5.048;2023-08-21T04:30:45;102282.91;;;22.58;63.70
69535;BME280;56754;51.568;5.048;2023-08-21T04:33:10;102286.78;;;22.57;63.98
69535;BME280;56754;51.568;5.048;2023-08-21T04:35:38;102284.41;;;22.55;63.66
69535;BME280;56754;51.568;5.048;2023-08-21T04:38:04;102293.75;;;22.54;63.70
69535;BME280;56754;51.568;5.048;2023-08-21T04:40:29;102287.47;;;22.54;64.30
69535;BME280;56754;51.568;5.048;2023-08-21T04:42:54;102279.69;;;22.52;63.76
69535;BME280;56754;51.568;5.048;2023-08-21T04:45:19;102286.63;;;22.49;63.80
69535;BME280;56754;51.568;5.048;2023-08-21T04:47:45;102279.59;;;22.48;63.61
69535;BME280;56754;51.568;5.048;2023-08-21T04:50:12;102285.06;;;22.48;63.78
69535;BME280;56754;51.568;5.048;2023-08-21T04:52:37;102284.63;;;22.46;64.04
69535;BME280;56754;51.568;5.048;2023-08-21T04:55:04;102299.38;;;22.45;64.32
69535;BME280;56754;51.568;5.048;2023-08-21T04:57:30;102294.28;;;22.44;62.98
69535;BME280;56754;51.568;5.048;2023-08-21T04:59:55;102290.00;;;22.43;64.49
69535;BME280;56754;51.568;5.048;2023-08-21T05:02:20;102291.13;;;22.42;64.23
69535;BME280;56754;51.568;5.048;2023-08-21T05:04:46;102298.50;;;22.41;64.58
69535;BME280;56754;51.568;5.048;2023-08-21T05:07:11;102303.94;;;22.41;64.80
69535;BME280;56754;51.568;5.048;2023-08-21T05:09:36;102299.66;;;22.40;65.32
69535;BME280;56754;51.568;5.048;2023-08-21T05:12:02;102307.03;;;22.40;64.45
69535;BME280;56754;51.568;5.048;2023-08-21T05:14:27;102308.16;;;22.39;64.93
69535;BME280;56754;51.568;5.048;2023-08-21T05:16:52;102308.16;;;22.39;64.29
69535;BME280;56754;51.568;5.048;2023-08-21T05:19:18;102317.50;;;22.38;64.38
69535;BME280;56754;51.568;5.048;2023-08-21T05:21:43;102311.25;;;22.37;64.17
69535;BME280;56754;51.568;5.048;2023-08-21T05:24:09;102316.72;;;22.37;64.81
69535;BME280;56754;51.568;5.048;2023-08-21T05:26:37;102313.97;;;22.37;63.68
69535;BME280;56754;51.568;5.048;2023-08-21T05:29:03;102312.03;;;22.38;65.60
69535;BME280;56754;51.568;5.048;2023-08-21T05:31:28;102312.03;;;22.38;64.77
69535;BME280;56754;51.568;5.048;2023-08-21T05:33:53;102309.31;;;22.38;65.75
69535;BME280;56754;51.568;5.048;2023-08-21T05:36:19;102314.78;;;22.38;64.86
69535;BME280;56754;51.568;5.048;2023-08-21T05:38:44;102319.06;;;22.39;65.06
69535;BME280;56754;51.568;5.048;2023-08-21T05:41:09;102320.22;;;22.38;64.81
69535;BME280;56754;51.568;5.048;2023-08-21T05:43:35;102323.72;;;22.38;64.42
69535;BME280;56754;51.568;5.048;2023-08-21T05:46:03;102317.50;;;22.38;64.51
69535;BME280;56754;51.568;5.048;2023-08-21T05:48:30;102321.00;;;22.38;66.11
69535;BME280;56754;51.568;5.048;2023-08-21T05:50:55;102324.50;;;22.39;65.17
69535;BME280;56754;51.568;5.048;2023-08-21T05:53:20;102321.00;;;22.38;65.28
69535;BME280;56754;51.568;5.048;2023-08-21T05:55:47;102321.00;;;22.38;64.38
69535;BME280;56754;51.568;5.048;2023-08-21T05:58:13;102319.88;;;22.39;64.97
69535;BME280;56754;51.568;5.048;2023-08-21T06:00:38;102321.78;;;22.39;63.87
69535;BME280;56754;51.568;5.048;2023-08-21T06:03:03;102317.56;;;22.41;65.08
69535;BME280;56754;51.568;5.048;2023-08-21T06:05:29;102322.31;;;22.44;65.63
69535;BME280;56754;51.568;5.048;2023-08-21T06:07:54;102323.91;;;22.45;65.28
69535;BME280;56754;51.568;5.048;2023-08-21T06:10:19;102327.41;;;22.46;65.26
69535;BME280;56754;51.568;5.048;2023-08-21T06:12:45;102327.06;;;22.47;65.19
69535;BME280;56754;51.568;5.048;2023-08-21T06:15:10;102331.38;;;22.48;65.07
69535;BME280;56754;51.568;5.048;2023-08-21T06:17:36;102336.81;;;22.48;65.56
69535;BME280;56754;51.568;5.048;2023-08-21T06:20:02;102333.72;;;22.50;65.61
69535;BME280;56754;51.568;5.048;2023-08-21T06:22:28;102329.06;;;22.51;65.81
69535;BME280;56754;51.568;5.048;2023-08-21T06:24:53;102336.53;;;22.54;66.25
69535;BME280;56754;51.568;5.048;2023-08-21T06:27:18;102339.69;;;22.56;66.35
69535;BME280;56754;51.568;5.048;2023-08-21T06:29:44;102341.28;;;22.57;66.08
69535;BME280;56754;51.568;5.048;2023-08-21T06:32:09;102331.97;;;22.58;65.85
69535;BME280;56754;51.568;5.048;2023-08-21T06:34:34;102332.41;;;22.60;65.99
69535;BME280;56754;51.568;5.048;2023-08-21T06:37:00;102333.19;;;22.60;66.22
69535;BME280;56754;51.568;5.048;2023-08-21T06:39:25;102335.56;;;22.62;66.20
69535;BME280;56754;51.568;5.048;2023-08-21T06:41:51;102336.00;;;22.64;65.78
69535;BME280;56754;51.568;5.048;2023-08-21T06:44:16;102325.88;;;22.64;65.79
69535;BME280;56754;51.568;5.048;2023-08-21T06:46:41;102335.28;;;22.67;65.16
69535;BME280;56754;51.568;5.048;2023-08-21T06:49:07;102327.56;;;22.69;64.92
69535;BME280;56754;51.568;5.048;2023-08-21T06:51:32;102323.66;;;22.70;64.78
69535;BME280;56754;51.568;5.048;2023-08-21T06:53:57;102336.00;;;22.64;62.59
69535;BME280;56754;51.568;5.048;2023-08-21T06:56:22;102326.59;;;22.61;63.66
69535;BME280;56754;51.568;5.048;2023-08-21T06:58:48;102340.59;;;22.60;64.67
69535;BME280;56754;51.568;5.048;2023-08-21T07:01:13;102341.00;;;22.62;65.10
69535;BME280;56754;51.568;5.048;2023-08-21T07:03:38;102334.84;;;22.65;65.54
69535;BME280;56754;51.568;5.048;2023-08-21T07:06:03;102337.63;;;22.68;65.54
69535;BME280;56754;51.568;5.048;2023-08-21T07:08:29;102327.97;;;22.71;65.69
69535;BME280;56754;51.568;5.048;2023-08-21T07:10:54;102336.59;;;22.73;65.71
69535;BME280;56754;51.568;5.048;2023-08-21T07:13:20;102338.59;;;22.76;65.70
69535;BME280;56754;51.568;5.048;2023-08-21T07:15:46;102331.66;;;22.79;65.81
69535;BME280;56754;51.568;5.048;2023-08-21T07:18:12;102341.47;;;22.83;65.59
69535;BME280;56754;51.568;5.048;2023-08-21T07:20:38;102333.38;;;22.87;65.20
69535;BME280;56754;51.568;5.048;2023-08-21T07:23:03;102332.69;;;22.90;65.47
69535;BME280;56754;51.568;5.048;2023-08-21T07:25:28;102347.53;;;22.92;65.32
69535;BME280;56754;51.568;5.048;2023-08-21T07:27:54;102339.78;;;22.94;65.13
69535;BME280;56754;51.568;5.048;2023-08-21T07:30:20;102342.97;;;22.97;64.90
69535;BME280;56754;51.568;5.048;2023-08-21T07:32:46;102347.69;;;23.00;64.82
69535;BME280;56754;51.568;5.048;2023-08-21T07:35:11;102350.09;;;23.01;64.80
69535;BME280;56754;51.568;5.048;2023-08-21T07:37:37;102352.44;;;23.03;65.00
69535;BME280;56754;51.568;5.048;2023-08-21T07:40:02;102347.44;;;23.05;64.86
69535;BME280;56754;51.568;5.048;2023-08-21T07:42:27;102349.78;;;23.06;64.01
69535;BME280;56754;51.568;5.048;2023-08-21T07:44:53;102341.53;;;23.03;63.43
69535;BME280;56754;51.568;5.048;2023-08-21T07:47:18;102348.50;;;23.00;63.58
69535;BME280;56754;51.568;5.048;2023-08-21T07:49:43;102352.00;;;23.01;64.05
69535;BME280;56754;51.568;5.048;2023-08-21T07:52:09;102356.31;;;23.02;64.62
69535;BME280;56754;51.568;5.048;2023-08-21T07:54:34;102357.19;;;23.06;64.75
69535;BME280;56754;51.568;5.048;2023-08-21T07:56:59;102358.84;;;23.10;64.36
69535;BME280;56754;51.568;5.048;2023-08-21T07:59:25;102367.09;;;23.14;64.24
69535;BME280;56754;51.568;5.048;2023-08-21T08:01:51;102362.16;;;23.20;64.26
69535;BME280;56754;51.568;5.048;2023-08-21T08:04:18;102366.88;;;23.23;64.03
69535;BME280;56754;51.568;5.048;2023-08-21T08:06:43;102356.03;;;23.26;63.73
69535;BME280;56754;51.568;5.048;2023-08-21T08:09:08;102359.22;;;23.28;64.70
69535;BME280;56754;51.568;5.048;2023-08-21T08:11:34;102359.03;;;23.21;64.39
69535;BME280;56754;51.568;5.048;2023-08-21T08:13:59;102367.53;;;23.16;64.69
69535;BME280;56754;51.568;5.048;2023-08-21T08:16:24;102369.09;;;23.17;63.06
69535;BME280;56754;51.568;5.048;2023-08-21T08:18:50;102362.94;;;23.20;63.30
69535;BME280;56754;51.568;5.048;2023-08-21T08:21:15;102359.56;;;23.27;63.37
69535;BME280;56754;51.568;5.048;2023-08-21T08:23:40;102364.72;;;23.32;63.33
69535;BME280;56754;51.568;5.048;2023-08-21T08:26:05;102360.13;;;23.36;63.30
69535;BME280;56754;51.568;5.048;2023-08-21T08:28:31;102361.78;;;23.41;62.94
69535;BME280;56754;51.568;5.048;2023-08-21T08:30:56;102365.38;;;23.45;63.07
69535;BME280;56754;51.568;5.048;2023-08-21T08:33:21;102365.81;;;23.47;62.87
69535;BME280;56754;51.568;5.048;2023-08-21T08:35:47;102359.63;;;23.50;62.94
69535;BME280;56754;51.568;5.048;2023-08-21T08:38:12;102362.78;;;23.52;62.48
69535;BME280;56754;51.568;5.048;2023-08-21T08:40:44;102366.72;;;23.54;63.24
69535;BME280;56754;51.568;5.048;2023-08-21T08:43:11;102372.25;;;23.58;62.55
69535;BME280;56754;51.568;5.048;2023-08-21T08:45:36;102368.38;;;23.59;62.90
69535;BME280;56754;51.568;5.048;2023-08-21T08:48:02;102372.31;;;23.61;62.13
69535;BME280;56754;51.568;5.048;2023-08-21T08:50:31;102376.56;;;23.59;63.34
69535;BME280;56754;51.568;5.048;2023-08-21T08:52:58;102378.28;;;23.48;63.78
69535;BME280;56754;51.568;5.048;2023-08-21T08:55:24;102363.63;;;23.36;64.24
69535;BME280;56754;51.568;5.048;2023-08-21T08:57:50;102368.69;;;23.34;64.82
69535;BME280;56754;51.568;5.048;2023-08-21T09:00:15;102366.38;;;23.36;62.26
69535;BME280;56754;51.568;5.048;2023-08-21T09:02:41;102365.38;;;23.45;62.28
69535;BME280;56754;51.568;5.048;2023-08-21T09:05:06;102366.66;;;23.51;62.64
69535;BME280;56754;51.568;5.048;2023-08-21T09:07:32;102359.75;;;23.57;63.00
69535;BME280;56754;51.568;5.048;2023-08-21T09:09:57;102358.28;;;23.63;63.86
69535;BME280;56754;51.568;5.048;2023-08-21T09:12:23;102360.91;;;23.56;63.83
69535;BME280;56754;51.568;5.048;2023-08-21T09:14:48;102360.78;;;23.49;64.45
69535;BME280;56754;51.568;5.048;2023-08-21T09:17:14;102359.91;;;23.45;64.79
69535;BME280;56754;51.568;5.048;2023-08-21T09:19:39;102351.72;;;23.45;63.70
69535;BME280;56754;51.568;5.048;2023-08-21T09:22:12;102358.06;;;23.49;63.53
69535;BME280;56754;51.568;5.048;2023-08-21T09:24:38;102362.47;;;23.57;63.59
69535;BME280;56754;51.568;5.048;2023-08-21T09:27:04;102356.00;;;23.65;62.52
69535;BME280;56754;51.568;5.048;2023-08-21T09:29:40;102356.53;;;23.71;64.00
69535;BME280;56754;51.568;5.048;2023-08-21T09:32:05;102356.38;;;23.64;63.82
69535;BME280;56754;51.568;5.048;2023-08-21T09:34:37;102352.38;;;23.57;64.26
69535;BME280;56754;51.568;5.048;2023-08-21T09:37:06;102358.13;;;23.52;64.51
69535;BME280;56754;51.568;5.048;2023-08-21T09:39:33;102361.19;;;23.51;64.72
69535;BME280;56754;51.568;5.048;2023-08-21T09:41:59;102346.41;;;23.52;61.80
69535;BME280;56754;51.568;5.048;2023-08-21T09:44:24;102354.72;;;23.59;61.80
69535;BME280;56754;51.568;5.048;2023-08-21T09:46:50;102352.09;;;23.66;61.60
69535;BME280;56754;51.568;5.048;2023-08-21T09:49:16;102358.91;;;23.72;63.56
69535;BME280;56754;51.568;5.048;2023-08-21T09:51:42;102356.00;;;23.65;63.47
69535;BME280;56754;51.568;5.048;2023-08-21T09:54:08;102351.66;;;23.60;63.79
69535;BME280;56754;51.568;5.048;2023-08-21T09:56:33;102353.88;;;23.55;64.28
69535;BME280;56754;51.568;5.048;2023-08-21T09:58:58;102346.09;;;23.57;62.70
69535;BME280;56754;51.568;5.048;2023-08-21T10:01:24;102352.84;;;23.63;61.17
69535;BME280;56754;51.568;5.048;2023-08-21T10:03:53;102349.13;;;23.71;61.61
69535;BME280;56754;51.568;5.048;2023-08-21T10:06:20;102341.44;;;23.77;62.95
69535;BME280;56754;51.568;5.048;2023-08-21T10:08:48;102338.19;;;23.71;62.68
69535;BME280;56754;51.568;5.048;2023-08-21T10:11:17;102338.84;;;23.65;63.38
69535;BME280;56754;51.568;5.048;2023-08-21T10:13:44;102334.84;;;23.58;63.70
69535;BME280;56754;51.568;5.048;2023-08-21T10:16:10;102330.53;;;23.57;61.41
69535;BME280;56754;51.568;5.048;2023-08-21T10:18:36;102337.63;;;23.62;61.24
69535;BME280;56754;51.568;5.048;2023-08-21T10:21:16;102340.94;;;23.71;60.18
69535;BME280;56754;51.568;5.048;2023-08-21T10:23:46;102337.13;;;23.76;62.23
69535;BME280;56754;51.568;5.048;2023-08-21T10:26:12;102337.41;;;23.71;62.45
69535;BME280;56754;51.568;5.048;2023-08-21T10:31:35;102337.19;;;23.60;63.41
69535;BME280;56754;51.568;5.048;2023-08-21T10:34:05;102334.16;;;23.65;60.28
69535;BME280;56754;51.568;5.048;2023-08-21T10:36:38;102339.00;;;23.72;60.05
69535;BME280;56754;51.568;5.048;2023-08-21T10:39:04;102335.97;;;23.77;61.23
69535;BME280;56754;51.568;5.048;2023-08-21T10:41:29;102340.66;;;23.76;62.11
69535;BME280;56754;51.568;5.048;2023-08-21T10:43:54;102344.03;;;23.70;62.64
69535;BME280;56754;51.568;5.048;2023-08-21T10:46:19;102338.84;;;23.65;63.12
69535;BME280;56754;51.568;5.048;2023-08-21T10:48:45;102340.34;;;23.62;63.18
69535;BME280;56754;51.568;5.048;2023-08-21T10:51:10;102341.06;;;23.59;63.34
69535;BME280;56754;51.568;5.048;2023-08-21T10:53:35;102330.59;;;23.61;63.47
69535;BME280;56754;51.568;5.048;2023-08-21T10:56:04;102326.03;;;23.69;63.68
69535;BME280;56754;51.568;5.048;2023-08-21T10:58:42;102335.63;;;23.78;63.33
69535;BME280;56754;51.568;5.048;2023-08-21T11:01:08;102327.44;;;23.78;62.21
69535;BME280;56754;51.568;5.048;2023-08-21T11:03:33;102324.94;;;23.70;62.79
69535;BME280;56754;51.568;5.048;2023-08-21T11:06:07;102325.63;;;23.67;63.09
69535;BME280;56754;51.568;5.048;2023-08-21T11:08:33;102321.69;;;23.64;63.32
69535;BME280;56754;51.568;5.048;2023-08-21T11:11:03;102324.81;;;23.66;63.67
69535;BME280;56754;51.568;5.048;2023-08-21T11:13:28;102328.06;;;23.72;60.48
69535;BME280;56754;51.568;5.048;2023-08-21T11:16:04;102329.78;;;23.80;62.94
69535;BME280;56754;51.568;5.048;2023-08-21T11:18:32;102327.03;;;23.80;62.18
69535;BME280;56754;51.568;5.048;2023-08-21T11:21:10;102316.81;;;23.73;62.31
69535;BME280;56754;51.568;5.048;2023-08-21T11:23:40;102323.31;;;23.69;62.75
69535;BME280;56754;51.568;5.048;2023-08-21T11:26:06;102326.41;;;23.67;62.89
69535;BME280;56754;51.568;5.048;2023-08-21T11:28:35;102325.34;;;23.72;62.76
69535;BME280;56754;51.568;5.048;2023-08-21T11:31:00;102330.16;;;23.78;61.58
69535;BME280;56754;51.568;5.048;2023-08-21T11:33:27;102324.38;;;23.83;62.63
69535;BME280;56754;51.568;5.048;2023-08-21T11:35:52;102328.22;;;23.79;61.67
69535;BME280;56754;51.568;5.048;2023-08-21T11:38:22;102325.78;;;23.74;62.25
69535;BME280;56754;51.568;5.048;2023-08-21T11:40:59;102330.41;;;23.70;62.72
69535;BME280;56754;51.568;5.048;2023-08-21T11:43:41;102316.38;;;23.71;62.77
69535;BME280;56754;51.568;5.048;2023-08-21T11:46:07;102313.34;;;23.76;62.78
69535;BME280;56754;51.568;5.048;2023-08-21T11:48:36;102318.13;;;23.83;62.59
69535;BME280;56754;51.568;5.048;2023-08-21T11:51:02;102322.47;;;23.84;61.82
69535;BME280;56754;51.568;5.048;2023-08-21T11:53:32;102327.44;;;23.78;62.02
69535;BME280;56754;51.568;5.048;2023-08-21T11:55:57;102318.38;;;23.74;62.40
69535;BME280;56754;51.568;5.048;2023-08-21T11:58:22;102308.19;;;23.71;62.46
69535;BME280;56754;51.568;5.048;2023-08-21T12:00:48;102320.75;;;23.76;62.82
69535;BME280;56754;51.568;5.048;2023-08-21T12:03:17;102316.56;;;23.82;62.52
69535;BME280;56754;51.568;5.048;2023-08-21T12:05:43;102315.44;;;23.87;62.24
69535;BME280;56754;51.568;5.048;2023-08-21T12:08:08;102311.88;;;23.82;61.37
69535;BME280;56754;51.568;5.048;2023-08-21T12:10:33;102306.38;;;23.79;62.00
69535;BME280;56754;51.568;5.048;2023-08-21T12:12:59;102288.00;;;23.76;62.27
69535;BME280;56754;51.568;5.048;2023-08-21T12:15:24;102307.16;;;23.79;61.78
69535;BME280;56754;51.568;5.048;2023-08-21T12:17:49;102300.22;;;23.86;62.18
69535;BME280;56754;51.568;5.048;2023-08-21T12:20:15;102300.72;;;23.91;62.16
69535;BME280;56754;51.568;5.048;2023-08-21T12:22:43;102302.22;;;23.89;61.05
69535;BME280;56754;51.568;5.048;2023-08-21T12:25:09;102307.66;;;23.85;61.51
69535;BME280;56754;51.568;5.048;2023-08-21T12:27:34;102298.59;;;23.81;61.87
69535;BME280;56754;51.568;5.048;2023-08-21T12:29:59;102289.59;;;23.80;61.97
69535;BME280;56754;51.568;5.048;2023-08-21T12:32:25;102294.00;;;23.85;62.13
69535;BME280;56754;51.568;5.048;2023-08-21T12:34:50;102289.00;;;23.91;62.19
69535;BME280;56754;51.568;5.048;2023-08-21T12:37:15;102289.41;;;23.93;61.35
69535;BME280;56754;51.568;5.048;2023-08-21T12:39:40;102299.50;;;23.89;61.10
69535;BME280;56754;51.568;5.048;2023-08-21T12:42:06;102291.25;;;23.85;61.58
69535;BME280;56754;51.568;5.048;2023-08-21T12:44:31;102298.66;;;23.84;61.78
69535;BME280;56754;51.568;5.048;2023-08-21T12:46:56;102301.41;;;23.84;61.82
69535;BME280;56754;51.568;5.048;2023-08-21T12:49:22;102295.94;;;23.84;62.14
69535;BME280;56754;51.568;5.048;2023-08-21T12:51:47;102296.78;;;23.89;62.04